sensor_id;sensor_type;location;lat;lon;timestamp;temperature;humidity
33093;DHT22;19456;46.104;12.908;2023-04-03T00:01:01;12.00;99.90
33093;DHT22;19456;46.104;12.908;2023-04-03T00:03:27;12.20;99.90
33093;DHT22;19456;46.104;12.908;2023-04-03T00:05:52;12.20;99.90
33093;DHT22;19456;46.104;12.908;2023-04-03T00:08:18;12.30;99.90
33093;DHT22;19456;46.104;12.908;2023-04-03T00:10:43;12.30;99.90
33093;DHT22;19456;46.104;12.908;2023-04-03T00:13:09;12.30;99.90
33093;DHT22;19456;46.104;12.908;2023-04-03T00:15:35;12.20;99.90
33093;DHT22;19456;46.104;12.908;2023-04-03T00:18:01;12.00;99.90
33093;DHT22;19456;46.104;12.908;2023-04-03T00:20:27;11.60;99.90
33093;DHT22;19456;46.104;12.908;2023-04-03T00:22:52;11.00;99.90
33093;DHT22;19456;46.104;12.908;2023-04-03T00:25:18;10.40;99.90
33093;DHT22;19456;46.104;12.908;2023-04-03T00:27:43;10.30;99.90
33093;DHT22;19456;46.104;12.908;2023-04-03T00:30:10;10.20;99.90
33093;DHT22;19456;46.104;12.908;2023-04-03T00:32:36;10.10;99.90
33093;DHT22;19456;46.104;12.908;2023-04-03T00:35:02;10.10;99.90
33093;DHT22;19456;46.104;12.908;2023-04-03T00:37:27;10.10;99.90
33093;DHT22;19456;46.104;12.908;2023-04-03T00:39:53;10.30;99.90
33093;DHT22;19456;46.104;12.908;2023-04-03T00:42:18;10.30;99.90
33093;DHT22;19456;46.104;12.908;2023-04-03T00:47:10;10.50;99.90
33093;DHT22;19456;46.104;12.908;2023-04-03T00:49:37;10.60;99.90
33093;DHT22;19456;46.104;12.908;2023-04-03T00:52:03;10.40;99.90
33093;DHT22;19456;46.104;12.908;2023-04-03T00:54:32;10.40;99.90
33093;DHT22;19456;46.104;12.908;2023-04-03T00:56:57;10.40;99.90
33093;DHT22;19456;46.104;12.908;2023-04-03T00:59:24;10.30;99.90
33093;DHT22;19456;46.104;12.908;2023-04-03T01:01:55;10.30;99.90
33093;DHT22;19456;46.104;12.908;2023-04-03T01:04:34;10.30;99.90
33093;DHT22;19456;46.104;12.908;2023-04-03T01:07:02;10.40;99.90
33093;DHT22;19456;46.104;12.908;2023-04-03T01:09:28;10.50;99.90
33093;DHT22;19456;46.104;12.908;2023-04-03T01:11:54;10.50;99.90
33093;DHT22;19456;46.104;12.908;2023-04-03T01:14:20;10.40;99.90
33093;DHT22;19456;46.104;12.908;2023-04-03T01:16:52;10.40;99.90
33093;DHT22;19456;46.104;12.908;2023-04-03T01:19:18;10.30;99.90
33093;DHT22;19456;46.104;12.908;2023-04-03T01:24:33;10.00;99.90
33093;DHT22;19456;46.104;12.908;2023-04-03T01:26:59;9.80;99.90
33093;DHT22;19456;46.104;12.908;2023-04-03T01:29:26;9.80;99.90
33093;DHT22;19456;46.104;12.908;2023-04-03T01:31:55;9.80;99.90
33093;DHT22;19456;46.104;12.908;2023-04-03T01:34:22;9.90;99.90
33093;DHT22;19456;46.104;12.908;2023-04-03T01:36:48;10.00;99.90
33093;DHT22;19456;46.104;12.908;2023-04-03T01:39:13;10.10;99.90
33093;DHT22;19456;46.104;12.908;2023-04-03T01:41:39;9.90;99.90
33093;DHT22;19456;46.104;12.908;2023-04-03T01:44:04;9.60;99.90
33093;DHT22;19456;46.104;12.908;2023-04-03T01:46:30;9.40;99.90
33093;DHT22;19456;46.104;12.908;2023-04-03T01:48:56;9.30;99.90
33093;DHT22;19456;46.104;12.908;2023-04-03T01:51:21;9.20;99.90
33093;DHT22;19456;46.104;12.908;2023-04-03T01:53:47;9.10;99.90
33093;DHT22;19456;46.104;12.908;2023-04-03T01:56:12;9.10;99.90
33093;DHT22;19456;46.104;12.908;2023-04-03T01:58:38;8.90;99.90
33093;DHT22;19456;46.104;12.908;2023-04-03T02:01:04;8.90;99.90
33093;DHT22;19456;46.104;12.908;2023-04-03T02:03:29;8.90;99.90
33093;DHT22;19456;46.104;12.908;2023-04-03T02:05:56;8.70;99.90
33093;DHT22;19456;46.104;12.908;2023-04-03T02:08:21;8.60;99.90
33093;DHT22;19456;46.104;12.908;2023-04-03T02:10:47;8.80;99.90
33093;DHT22;19456;46.104;12.908;2023-04-03T02:13:13;9.00;99.90
33093;DHT22;19456;46.104;12.908;2023-04-03T02:15:39;9.00;99.90
33093;DHT22;19456;46.104;12.908;2023-04-03T02:18:05;8.90;99.90
33093;DHT22;19456;46.104;12.908;2023-04-03T02:20:31;9.00;99.90
33093;DHT22;19456;46.104;12.908;2023-04-03T02:22:57;9.30;99.90
33093;DHT22;19456;46.104;12.908;2023-04-03T02:25:22;9.30;99.90
33093;DHT22;19456;46.104;12.908;2023-04-03T02:27:48;9.10;99.90
33093;DHT22;19456;46.104;12.908;2023-04-03T02:30:13;9.20;99.90
33093;DHT22;19456;46.104;12.908;2023-04-03T02:32:40;9.10;99.90
33093;DHT22;19456;46.104;12.908;2023-04-03T02:35:06;9.20;99.90
33093;DHT22;19456;46.104;12.908;2023-04-03T02:37:32;9.30;99.90
33093;DHT22;19456;46.104;12.908;2023-04-03T02:39:58;9.50;99.90
33093;DHT22;19456;46.104;12.908;2023-04-03T02:42:24;9.80;99.90
33093;DHT22;19456;46.104;12.908;2023-04-03T02:44:49;10.00;99.90
33093;DHT22;19456;46.104;12.908;2023-04-03T02:47:15;9.80;99.90
33093;DHT22;19456;46.104;12.908;2023-04-03T02:49:41;9.50;99.90
33093;DHT22;19456;46.104;12.908;2023-04-03T02:52:08;9.30;99.90
33093;DHT22;19456;46.104;12.908;2023-04-03T02:54:34;9.20;99.90
33093;DHT22;19456;46.104;12.908;2023-04-03T02:57:00;8.90;99.90
33093;DHT22;19456;46.104;12.908;2023-04-03T02:59:26;8.70;99.90
33093;DHT22;19456;46.104;12.908;2023-04-03T03:01:51;8.20;99.90
33093;DHT22;19456;46.104;12.908;2023-04-03T03:04:17;8.10;99.90
33093;DHT22;19456;46.104;12.908;2023-04-03T03:06:42;8.00;99.90
33093;DHT22;19456;46.104;12.908;2023-04-03T03:09:08;8.00;99.90
33093;DHT22;19456;46.104;12.908;2023-04-03T03:11:33;8.00;99.90
33093;DHT22;19456;46.104;12.908;2023-04-03T03:13:59;7.90;99.90
33093;DHT22;19456;46.104;12.908;2023-04-03T03:16:25;8.00;99.90
33093;DHT22;19456;46.104;12.908;2023-04-03T03:18:50;8.00;99.90
33093;DHT22;19456;46.104;12.908;2023-04-03T03:21:16;8.10;99.90
33093;DHT22;19456;46.104;12.908;2023-04-03T03:23:41;8.30;99.90
33093;DHT22;19456;46.104;12.908;2023-04-03T03:26:08;8.30;99.90
33093;DHT22;19456;46.104;12.908;2023-04-03T03:28:34;8.50;99.90
33093;DHT22;19456;46.104;12.908;2023-04-03T03:31:00;8.40;99.90
33093;DHT22;19456;46.104;12.908;2023-04-03T03:33:26;8.30;99.90
33093;DHT22;19456;46.104;12.908;2023-04-03T03:35:52;8.30;99.90
33093;DHT22;19456;46.104;12.908;2023-04-03T03:38:17;8.40;99.90
33093;DHT22;19456;46.104;12.908;2023-04-03T03:40:43;8.60;99.90
33093;DHT22;19456;46.104;12.908;2023-04-03T03:43:08;8.60;99.90
33093;DHT22;19456;46.104;12.908;2023-04-03T03:45:34;8.60;99.90
33093;DHT22;19456;46.104;12.908;2023-04-03T03:48:00;8.50;99.90
33093;DHT22;19456;46.104;12.908;2023-04-03T03:50:26;8.60;99.90
33093;DHT22;19456;46.104;12.908;2023-04-03T03:52:51;8.70;99.90
33093;DHT22;19456;46.104;12.908;2023-04-03T03:55:17;8.50;99.90
33093;DHT22;19456;46.104;12.908;2023-04-03T03:57:42;8.40;99.90
33093;DHT22;19456;46.104;12.908;2023-04-03T04:00:08;8.30;99.90
33093;DHT22;19456;46.104;12.908;2023-04-03T04:02:34;8.20;99.90
33093;DHT22;19456;46.104;12.908;2023-04-03T04:05:00;8.40;99.90
33093;DHT22;19456;46.104;12.908;2023-04-03T04:07:25;8.30;99.90
33093;DHT22;19456;46.104;12.908;2023-04-03T04:09:53;7.90;99.90
33093;DHT22;19456;46.104;12.908;2023-04-03T04:12:19;7.70;99.90
33093;DHT22;19456;46.104;12.908;2023-04-03T04:14:45;7.70;99.90
33093;DHT22;19456;46.104;12.908;2023-04-03T04:17:12;7.70;99.90
33093;DHT22;19456;46.104;12.908;2023-04-03T04:19:38;7.70;99.90
33093;DHT22;19456;46.104;12.908;2023-04-03T04:22:03;7.80;99.90
33093;DHT22;19456;46.104;12.908;2023-04-03T04:24:29;7.80;99.90
33093;DHT22;19456;46.104;12.908;2023-04-03T04:26:54;7.80;99.90
33093;DHT22;19456;46.104;12.908;2023-04-03T04:29:20;7.80;99.90
33093;DHT22;19456;46.104;12.908;2023-04-03T04:31:46;7.70;99.90
33093;DHT22;19456;46.104;12.908;2023-04-03T04:34:11;7.50;99.90
33093;DHT22;19456;46.104;12.908;2023-04-03T04:36:38;7.60;99.90
33093;DHT22;19456;46.104;12.908;2023-04-03T04:39:04;8.10;99.90
33093;DHT22;19456;46.104;12.908;2023-04-03T04:41:30;8.40;99.90
33093;DHT22;19456;46.104;12.908;2023-04-03T04:43:56;8.10;99.90
33093;DHT22;19456;46.104;12.908;2023-04-03T04:46:22;7.80;99.90
33093;DHT22;19456;46.104;12.908;2023-04-03T04:48:47;7.60;99.90
33093;DHT22;19456;46.104;12.908;2023-04-03T04:51:13;6.90;99.90
33093;DHT22;19456;46.104;12.908;2023-04-03T04:53:39;6.60;99.90
33093;DHT22;19456;46.104;12.908;2023-04-03T04:56:05;6.60;99.90
33093;DHT22;19456;46.104;12.908;2023-04-03T04:58:31;6.80;99.90
33093;DHT22;19456;46.104;12.908;2023-04-03T05:03:25;7.40;99.90
33093;DHT22;19456;46.104;12.908;2023-04-03T05:05:51;7.30;99.90
33093;DHT22;19456;46.104;12.908;2023-04-03T05:08:16;6.80;99.90
33093;DHT22;19456;46.104;12.908;2023-04-03T05:10:42;6.80;99.90
33093;DHT22;19456;46.104;12.908;2023-04-03T05:13:08;7.00;99.90
33093;DHT22;19456;46.104;12.908;2023-04-03T05:15:33;7.10;99.90
33093;DHT22;19456;46.104;12.908;2023-04-03T05:17:59;7.10;99.90
33093;DHT22;19456;46.104;12.908;2023-04-03T05:20:24;7.30;99.90
33093;DHT22;19456;46.104;12.908;2023-04-03T05:22:50;7.90;99.90
33093;DHT22;19456;46.104;12.908;2023-04-03T05:25:16;8.30;99.90
33093;DHT22;19456;46.104;12.908;2023-04-03T05:27:41;7.80;99.90
33093;DHT22;19456;46.104;12.908;2023-04-03T05:30:07;7.70;99.90
33093;DHT22;19456;46.104;12.908;2023-04-03T05:32:33;8.20;99.90
33093;DHT22;19456;46.104;12.908;2023-04-03T05:34:58;8.70;99.90
33093;DHT22;19456;46.104;12.908;2023-04-03T05:37:24;8.60;99.90
33093;DHT22;19456;46.104;12.908;2023-04-03T05:39:49;8.40;99.90
33093;DHT22;19456;46.104;12.908;2023-04-03T05:42:18;8.40;99.90
33093;DHT22;19456;46.104;12.908;2023-04-03T05:44:44;8.70;99.90
33093;DHT22;19456;46.104;12.908;2023-04-03T05:47:12;9.10;99.90
33093;DHT22;19456;46.104;12.908;2023-04-03T05:49:38;9.30;99.90
33093;DHT22;19456;46.104;12.908;2023-04-03T05:52:13;9.50;99.90
33093;DHT22;19456;46.104;12.908;2023-04-03T05:54:47;9.50;99.90
33093;DHT22;19456;46.104;12.908;2023-04-03T05:57:14;9.70;99.90
33093;DHT22;19456;46.104;12.908;2023-04-03T05:59:45;9.50;99.90
33093;DHT22;19456;46.104;12.908;2023-04-03T06:02:12;9.60;99.90
33093;DHT22;19456;46.104;12.908;2023-04-03T06:04:39;9.50;99.90
33093;DHT22;19456;46.104;12.908;2023-04-03T06:07:12;9.30;99.90
33093;DHT22;19456;46.104;12.908;2023-04-03T06:09:42;9.50;99.90
33093;DHT22;19456;46.104;12.908;2023-04-03T06:12:09;9.70;99.90
33093;DHT22;19456;46.104;12.908;2023-04-03T06:14:36;9.90;99.90
33093;DHT22;19456;46.104;12.908;2023-04-03T06:17:02;10.00;99.90
33093;DHT22;19456;46.104;12.908;2023-04-03T06:19:28;10.00;99.90
33093;DHT22;19456;46.104;12.908;2023-04-03T06:21:53;10.10;99.90
33093;DHT22;19456;46.104;12.908;2023-04-03T06:24:19;10.30;99.90
33093;DHT22;19456;46.104;12.908;2023-04-03T06:26:47;10.40;99.90
33093;DHT22;19456;46.104;12.908;2023-04-03T06:29:12;10.60;99.90
33093;DHT22;19456;46.104;12.908;2023-04-03T06:31:38;10.70;99.90
33093;DHT22;19456;46.104;12.908;2023-04-03T06:34:04;10.90;99.90
33093;DHT22;19456;46.104;12.908;2023-04-03T06:36:29;10.90;99.90
33093;DHT22;19456;46.104;12.908;2023-04-03T06:38:56;10.90;99.90
33093;DHT22;19456;46.104;12.908;2023-04-03T06:41:21;10.90;99.90
33093;DHT22;19456;46.104;12.908;2023-04-03T06:43:47;11.00;99.90
33093;DHT22;19456;46.104;12.908;2023-04-03T06:46:20;11.00;99.90
33093;DHT22;19456;46.104;12.908;2023-04-03T06:48:45;11.00;99.90
33093;DHT22;19456;46.104;12.908;2023-04-03T06:51:15;11.10;99.90
33093;DHT22;19456;46.104;12.908;2023-04-03T06:53:46;11.30;99.90
33093;DHT22;19456;46.104;12.908;2023-04-03T06:56:12;11.30;99.90
33093;DHT22;19456;46.104;12.908;2023-04-03T06:58:38;11.50;99.90
33093;DHT22;19456;46.104;12.908;2023-04-03T07:01:07;11.60;99.90
33093;DHT22;19456;46.104;12.908;2023-04-03T07:03:33;11.60;99.90
33093;DHT22;19456;46.104;12.908;2023-04-03T07:05:59;11.60;99.90
33093;DHT22;19456;46.104;12.908;2023-04-03T07:08:24;11.60;99.90
33093;DHT22;19456;46.104;12.908;2023-04-03T07:10:51;11.70;99.90
33093;DHT22;19456;46.104;12.908;2023-04-03T07:13:17;11.70;99.90
33093;DHT22;19456;46.104;12.908;2023-04-03T07:15:42;11.60;99.90
33093;DHT22;19456;46.104;12.908;2023-04-03T07:18:08;11.60;99.90
33093;DHT22;19456;46.104;12.908;2023-04-03T07:20:34;11.60;99.90
33093;DHT22;19456;46.104;12.908;2023-04-03T07:23:00;11.50;99.90
33093;DHT22;19456;46.104;12.908;2023-04-03T07:25:27;11.60;99.90
33093;DHT22;19456;46.104;12.908;2023-04-03T07:27:53;11.60;99.90
33093;DHT22;19456;46.104;12.908;2023-04-03T07:30:19;11.60;99.90
33093;DHT22;19456;46.104;12.908;2023-04-03T07:32:46;11.50;99.90
33093;DHT22;19456;46.104;12.908;2023-04-03T07:35:11;11.40;99.90
33093;DHT22;19456;46.104;12.908;2023-04-03T07:37:38;11.50;99.90
33093;DHT22;19456;46.104;12.908;2023-04-03T07:40:04;11.50;99.90
33093;DHT22;19456;46.104;12.908;2023-04-03T07:42:30;11.50;99.90
33093;DHT22;19456;46.104;12.908;2023-04-03T07:44:55;11.60;99.90
33093;DHT22;19456;46.104;12.908;2023-04-03T07:47:21;11.60;99.90
33093;DHT22;19456;46.104;12.908;2023-04-03T07:49:47;11.60;99.90
33093;DHT22;19456;46.104;12.908;2023-04-03T07:52:13;11.60;99.90
33093;DHT22;19456;46.104;12.908;2023-04-03T07:54:41;11.60;99.90
33093;DHT22;19456;46.104;12.908;2023-04-03T07:57:07;11.70;99.90
33093;DHT22;19456;46.104;12.908;2023-04-03T07:59:33;11.70;99.90
33093;DHT22;19456;46.104;12.908;2023-04-03T08:01:59;11.80;99.90
33093;DHT22;19456;46.104;12.908;2023-04-03T08:04:25;11.90;99.90
33093;DHT22;19456;46.104;12.908;2023-04-03T08:06:52;11.90;99.90
33093;DHT22;19456;46.104;12.908;2023-04-03T08:09:19;12.00;99.90
33093;DHT22;19456;46.104;12.908;2023-04-03T08:11:45;12.00;99.90
33093;DHT22;19456;46.104;12.908;2023-04-03T08:14:11;12.00;99.90
33093;DHT22;19456;46.104;12.908;2023-04-03T08:19:07;12.00;99.90
33093;DHT22;19456;46.104;12.908;2023-04-03T08:21:33;12.10;99.90
33093;DHT22;19456;46.104;12.908;2023-04-03T08:23:59;12.20;99.90
33093;DHT22;19456;46.104;12.908;2023-04-03T08:26:25;12.30;99.90
33093;DHT22;19456;46.104;12.908;2023-04-03T08:28:52;12.30;99.90
33093;DHT22;19456;46.104;12.908;2023-04-03T08:31:18;12.30;99.90
33093;DHT22;19456;46.104;12.908;2023-04-03T08:33:45;12.30;99.90
33093;DHT22;19456;46.104;12.908;2023-04-03T08:36:21;12.20;99.90
33093;DHT22;19456;46.104;12.908;2023-04-03T08:38:47;12.20;99.90
33093;DHT22;19456;46.104;12.908;2023-04-03T08:46:18;12.30;99.90
33093;DHT22;19456;46.104;12.908;2023-04-03T08:48:46;12.50;99.90
33093;DHT22;19456;46.104;12.908;2023-04-03T08:51:25;12.70;99.90
33093;DHT22;19456;46.104;12.908;2023-04-03T09:03:38;13.00;99.90
33093;DHT22;19456;46.104;12.908;2023-04-03T09:08:56;13.30;99.90
33093;DHT22;19456;46.104;12.908;2023-04-03T09:16:43;13.60;99.90
33093;DHT22;19456;46.104;12.908;2023-04-03T09:21:41;13.50;99.90
33093;DHT22;19456;46.104;12.908;2023-04-03T09:24:07;13.70;99.90
33093;DHT22;19456;46.104;12.908;2023-04-03T09:29:05;13.60;99.90
33093;DHT22;19456;46.104;12.908;2023-04-03T09:31:38;13.60;99.90
33093;DHT22;19456;46.104;12.908;2023-04-03T09:36:53;13.50;99.90
33093;DHT22;19456;46.104;12.908;2023-04-03T09:39:20;13.60;99.90
33093;DHT22;19456;46.104;12.908;2023-04-03T09:42:11;13.70;99.90
33093;DHT22;19456;46.104;12.908;2023-04-03T09:45:04;13.90;99.90
33093;DHT22;19456;46.104;12.908;2023-04-03T09:47:35;14.00;99.90
33093;DHT22;19456;46.104;12.908;2023-04-03T09:50:34;14.00;99.90
33093;DHT22;19456;46.104;12.908;2023-04-03T09:52:55;14.00;99.90
33093;DHT22;19456;46.104;12.908;2023-04-03T09:58:24;14.10;99.90
33093;DHT22;19456;46.104;12.908;2023-04-03T10:00:57;14.20;99.90
33093;DHT22;19456;46.104;12.908;2023-04-03T10:03:36;14.20;99.90
33093;DHT22;19456;46.104;12.908;2023-04-03T10:06:21;14.30;99.90
33093;DHT22;19456;46.104;12.908;2023-04-03T10:09:23;14.40;99.90
33093;DHT22;19456;46.104;12.908;2023-04-03T10:17:48;14.90;99.90
33093;DHT22;19456;46.104;12.908;2023-04-03T10:22:51;14.80;99.90
33093;DHT22;19456;46.104;12.908;2023-04-03T10:25:36;14.80;99.90
33093;DHT22;19456;46.104;12.908;2023-04-03T10:48:39;15.70;99.00
33093;DHT22;19456;46.104;12.908;2023-04-03T10:53:52;15.70;96.20
33093;DHT22;19456;46.104;12.908;2023-04-03T10:56:31;15.60;96.30
33093;DHT22;19456;46.104;12.908;2023-04-03T11:02:00;15.80;96.30
33093;DHT22;19456;46.104;12.908;2023-04-03T11:04:28;15.80;94.60
33093;DHT22;19456;46.104;12.908;2023-04-03T11:09:47;16.00;94.30
33093;DHT22;19456;46.104;12.908;2023-04-03T11:12:25;16.30;94.70
33093;DHT22;19456;46.104;12.908;2023-04-03T11:14:52;16.70;94.70
33093;DHT22;19456;46.104;12.908;2023-04-03T11:19:50;16.90;92.30
33093;DHT22;19456;46.104;12.908;2023-04-03T11:22:22;16.80;90.60
33093;DHT22;19456;46.104;12.908;2023-04-03T11:25:34;16.80;90.60
33093;DHT22;19456;46.104;12.908;2023-04-03T11:27:43;16.90;89.80
33093;DHT22;19456;46.104;12.908;2023-04-03T11:32:59;17.60;87.90
33093;DHT22;19456;46.104;12.908;2023-04-03T11:35:28;17.90;85.00
33093;DHT22;19456;46.104;12.908;2023-04-03T11:37:57;17.90;82.60
33093;DHT22;19456;46.104;12.908;2023-04-03T11:40:26;18.30;82.10
33093;DHT22;19456;46.104;12.908;2023-04-03T11:45:27;18.90;78.10
33093;DHT22;19456;46.104;12.908;2023-04-03T11:47:58;18.70;76.70
33093;DHT22;19456;46.104;12.908;2023-04-03T12:08:52;20.20;69.70
33093;DHT22;19456;46.104;12.908;2023-04-03T12:11:24;20.70;66.80
33093;DHT22;19456;46.104;12.908;2023-04-03T12:14:04;20.50;67.10
33093;DHT22;19456;46.104;12.908;2023-04-03T12:16:44;20.90;66.10
33093;DHT22;19456;46.104;12.908;2023-04-03T12:22:13;22.10;62.80
33093;DHT22;19456;46.104;12.908;2023-04-03T12:24:43;21.90;63.40
33093;DHT22;19456;46.104;12.908;2023-04-03T12:40:15;21.00;61.40
33093;DHT22;19456;46.104;12.908;2023-04-03T12:45:44;22.10;53.00
33093;DHT22;19456;46.104;12.908;2023-04-03T12:48:21;22.20;51.20
33093;DHT22;19456;46.104;12.908;2023-04-03T12:50:51;22.10;49.30
33093;DHT22;19456;46.104;12.908;2023-04-03T12:53:33;22.70;49.50
33093;DHT22;19456;46.104;12.908;2023-04-03T12:59:14;23.70;48.20
33093;DHT22;19456;46.104;12.908;2023-04-03T13:01:41;24.00;45.70
33093;DHT22;19456;46.104;12.908;2023-04-03T13:04:09;23.80;46.20
33093;DHT22;19456;46.104;12.908;2023-04-03T13:06:41;22.70;48.60
33093;DHT22;19456;46.104;12.908;2023-04-03T13:09:18;22.90;47.50
33093;DHT22;19456;46.104;12.908;2023-04-03T13:11:44;23.30;45.40
33093;DHT22;19456;46.104;12.908;2023-04-03T13:14:23;23.20;46.10
33093;DHT22;19456;46.104;12.908;2023-04-03T13:19:23;24.80;44.00
33093;DHT22;19456;46.104;12.908;2023-04-03T13:21:59;25.10;44.10
33093;DHT22;19456;46.104;12.908;2023-04-03T13:24:29;25.00;43.00
33093;DHT22;19456;46.104;12.908;2023-04-03T13:26:56;25.00;42.90
33093;DHT22;19456;46.104;12.908;2023-04-03T13:29:25;25.00;43.50
33093;DHT22;19456;46.104;12.908;2023-04-03T13:31:55;25.70;42.40
33093;DHT22;19456;46.104;12.908;2023-04-03T13:34:26;25.20;40.90
33093;DHT22;19456;46.104;12.908;2023-04-03T13:37:23;25.60;40.90
33093;DHT22;19456;46.104;12.908;2023-04-03T13:40:08;26.10;40.60
33093;DHT22;19456;46.104;12.908;2023-04-03T13:42:37;25.80;40.00
33093;DHT22;19456;46.104;12.908;2023-04-03T13:45:28;26.00;38.70
33093;DHT22;19456;46.104;12.908;2023-04-03T13:48:06;25.80;39.60
33093;DHT22;19456;46.104;12.908;2023-04-03T13:50:41;25.90;39.30
33093;DHT22;19456;46.104;12.908;2023-04-03T13:53:14;26.40;38.10
33093;DHT22;19456;46.104;12.908;2023-04-03T13:56:00;26.70;37.90
33093;DHT22;19456;46.104;12.908;2023-04-03T13:58:30;26.70;37.20
33093;DHT22;19456;46.104;12.908;2023-04-03T14:01:00;27.30;36.40
33093;DHT22;19456;46.104;12.908;2023-04-03T14:03:46;26.60;36.50
33093;DHT22;19456;46.104;12.908;2023-04-03T14:06:15;26.60;36.60
33093;DHT22;19456;46.104;12.908;2023-04-03T14:08:48;26.40;36.00
33093;DHT22;19456;46.104;12.908;2023-04-03T14:11:21;26.80;37.00
33093;DHT22;19456;46.104;12.908;2023-04-03T14:13:47;27.00;36.60
33093;DHT22;19456;46.104;12.908;2023-04-03T14:16:15;27.30;36.40
33093;DHT22;19456;46.104;12.908;2023-04-03T14:18:42;26.40;36.40
33093;DHT22;19456;46.104;12.908;2023-04-03T14:21:13;26.40;36.20
33093;DHT22;19456;46.104;12.908;2023-04-03T14:23:40;26.60;35.70
33093;DHT22;19456;46.104;12.908;2023-04-03T14:26:13;26.10;36.00
33093;DHT22;19456;46.104;12.908;2023-04-03T14:28:59;26.50;36.50
33093;DHT22;19456;46.104;12.908;2023-04-03T14:31:24;26.70;36.30
33093;DHT22;19456;46.104;12.908;2023-04-03T14:33:50;27.20;36.30
33093;DHT22;19456;46.104;12.908;2023-04-03T14:36:18;26.90;35.10
33093;DHT22;19456;46.104;12.908;2023-04-03T14:38:46;26.80;34.80
33093;DHT22;19456;46.104;12.908;2023-04-03T14:41:12;26.10;34.50
33093;DHT22;19456;46.104;12.908;2023-04-03T14:43:38;25.80;35.20
33093;DHT22;19456;46.104;12.908;2023-04-03T14:46:12;26.10;34.70
33093;DHT22;19456;46.104;12.908;2023-04-03T14:48:38;25.90;35.30
33093;DHT22;19456;46.104;12.908;2023-04-03T14:51:05;25.80;34.60
33093;DHT22;19456;46.104;12.908;2023-04-03T14:53:32;26.10;35.30
33093;DHT22;19456;46.104;12.908;2023-04-03T14:56:01;25.80;33.90
33093;DHT22;19456;46.104;12.908;2023-04-03T14:58:28;25.80;34.80
33093;DHT22;19456;46.104;12.908;2023-04-03T15:00:54;26.00;34.50
33093;DHT22;19456;46.104;12.908;2023-04-03T15:03:21;26.40;34.30
33093;DHT22;19456;46.104;12.908;2023-04-03T15:05:47;26.20;33.70
33093;DHT22;19456;46.104;12.908;2023-04-03T15:08:18;26.00;33.90
33093;DHT22;19456;46.104;12.908;2023-04-03T15:10:51;25.80;34.30
33093;DHT22;19456;46.104;12.908;2023-04-03T15:13:29;25.40;34.40
33093;DHT22;19456;46.104;12.908;2023-04-03T15:15:55;26.00;35.60
33093;DHT22;19456;46.104;12.908;2023-04-03T15:18:22;25.60;34.00
33093;DHT22;19456;46.104;12.908;2023-04-03T15:20:48;26.00;34.40
33093;DHT22;19456;46.104;12.908;2023-04-03T15:23:14;25.90;33.60
33093;DHT22;19456;46.104;12.908;2023-04-03T15:25:44;25.80;34.10
33093;DHT22;19456;46.104;12.908;2023-04-03T15:28:31;24.80;33.90
33093;DHT22;19456;46.104;12.908;2023-04-03T15:30:59;24.20;34.30
33093;DHT22;19456;46.104;12.908;2023-04-03T15:33:31;24.50;35.30
33093;DHT22;19456;46.104;12.908;2023-04-03T15:35:57;25.00;34.20
33093;DHT22;19456;46.104;12.908;2023-04-03T15:38:25;24.10;34.30
33093;DHT22;19456;46.104;12.908;2023-04-03T15:40:53;23.40;35.60
33093;DHT22;19456;46.104;12.908;2023-04-03T15:43:23;23.30;36.40
33093;DHT22;19456;46.104;12.908;2023-04-03T15:45:49;23.50;36.20
33093;DHT22;19456;46.104;12.908;2023-04-03T15:48:21;23.60;35.20
33093;DHT22;19456;46.104;12.908;2023-04-03T15:50:47;23.40;35.00
33093;DHT22;19456;46.104;12.908;2023-04-03T15:53:13;23.00;35.40
33093;DHT22;19456;46.104;12.908;2023-04-03T15:55:39;23.20;35.80
33093;DHT22;19456;46.104;12.908;2023-04-03T15:58:07;23.20;36.50
33093;DHT22;19456;46.104;12.908;2023-04-03T16:00:33;23.30;35.70
33093;DHT22;19456;46.104;12.908;2023-04-03T16:02:59;23.20;35.50
33093;DHT22;19456;46.104;12.908;2023-04-03T16:05:27;23.20;35.70
33093;DHT22;19456;46.104;12.908;2023-04-03T16:07:52;22.90;36.20
33093;DHT22;19456;46.104;12.908;2023-04-03T16:10:22;22.20;37.00
33093;DHT22;19456;46.104;12.908;2023-04-03T16:12:51;21.60;36.80
33093;DHT22;19456;46.104;12.908;2023-04-03T16:15:16;20.90;37.60
33093;DHT22;19456;46.104;12.908;2023-04-03T16:17:44;20.70;37.90
33093;DHT22;19456;46.104;12.908;2023-04-03T16:20:10;20.50;37.60
33093;DHT22;19456;46.104;12.908;2023-04-03T16:22:36;20.10;39.10
33093;DHT22;19456;46.104;12.908;2023-04-03T16:25:03;19.50;39.60
33093;DHT22;19456;46.104;12.908;2023-04-03T16:27:28;19.00;40.20
33093;DHT22;19456;46.104;12.908;2023-04-03T16:29:56;18.50;40.60
33093;DHT22;19456;46.104;12.908;2023-04-03T16:32:22;18.10;41.50
33093;DHT22;19456;46.104;12.908;2023-04-03T16:34:48;17.50;43.80
33093;DHT22;19456;46.104;12.908;2023-04-03T16:37:19;16.80;48.00
33093;DHT22;19456;46.104;12.908;2023-04-03T16:39:44;16.30;54.10
33093;DHT22;19456;46.104;12.908;2023-04-03T16:42:10;16.20;56.30
33093;DHT22;19456;46.104;12.908;2023-04-03T16:44:36;16.10;56.90
33093;DHT22;19456;46.104;12.908;2023-04-03T16:47:02;16.10;57.60
33093;DHT22;19456;46.104;12.908;2023-04-03T16:49:28;15.90;57.10
33093;DHT22;19456;46.104;12.908;2023-04-03T16:51:58;15.70;58.70
33093;DHT22;19456;46.104;12.908;2023-04-03T16:54:26;15.50;60.40
33093;DHT22;19456;46.104;12.908;2023-04-03T16:56:53;15.50;61.10
33093;DHT22;19456;46.104;12.908;2023-04-03T16:59:19;15.60;60.30
33093;DHT22;19456;46.104;12.908;2023-04-03T17:01:45;15.50;59.70
33093;DHT22;19456;46.104;12.908;2023-04-03T17:04:13;15.30;61.00
33093;DHT22;19456;46.104;12.908;2023-04-03T17:06:41;15.10;61.60
33093;DHT22;19456;46.104;12.908;2023-04-03T17:09:07;15.30;60.70
33093;DHT22;19456;46.104;12.908;2023-04-03T17:11:32;15.40;61.50
33093;DHT22;19456;46.104;12.908;2023-04-03T17:13:58;15.50;59.40
33093;DHT22;19456;46.104;12.908;2023-04-03T17:16:24;15.50;59.20
33093;DHT22;19456;46.104;12.908;2023-04-03T17:18:50;15.50;59.50
33093;DHT22;19456;46.104;12.908;2023-04-03T17:21:15;15.30;60.10
33093;DHT22;19456;46.104;12.908;2023-04-03T17:23:42;15.30;60.40
33093;DHT22;19456;46.104;12.908;2023-04-03T17:26:08;15.00;63.30
33093;DHT22;19456;46.104;12.908;2023-04-03T17:28:34;14.60;64.80
33093;DHT22;19456;46.104;12.908;2023-04-03T17:31:02;14.50;65.10
33093;DHT22;19456;46.104;12.908;2023-04-03T17:33:28;14.50;64.30
33093;DHT22;19456;46.104;12.908;2023-04-03T17:35:57;14.40;65.80
33093;DHT22;19456;46.104;12.908;2023-04-03T17:38:23;14.20;64.80